createdAt,value
2019-01-13T00:04:52.847Z,6.70
2019-01-13T00:07:33.601Z,8.30
2019-01-13T00:10:02.631Z,7.50
2019-01-13T00:12:50.967Z,8.07
2019-01-13T00:15:35.126Z,7.63
2019-01-13T00:21:07.176Z,7.60
2019-01-13T00:26:36.498Z,7.33
2019-01-13T00:31:53.544Z,7.63
2019-01-13T00:34:41.783Z,7.70
2019-01-13T00:37:22.407Z,8.07
2019-01-13T00:42:35.458Z,8.60
2019-01-13T00:45:23.764Z,7.90
2019-01-13T00:48:07.229Z,8.20
2019-01-13T00:50:48.380Z,8.30
2019-01-13T00:53:35.115Z,7.53
2019-01-13T00:56:16.545Z,6.70
2019-01-13T00:58:57.360Z,6.70
2019-01-13T01:04:26.189Z,7.30
2019-01-13T01:07:07.228Z,6.93
2019-01-13T01:09:55.040Z,8.43
2019-01-13T01:15:20.767Z,8.67
2019-01-13T01:18:02.264Z,8.50
2019-01-13T01:20:46.673Z,10.13
2019-01-13T01:23:28.108Z,10.70
2019-01-13T01:26:12.351Z,9.67
2019-01-13T01:28:53.803Z,9.10
2019-01-13T01:31:37.674Z,9.43
2019-01-13T01:34:19.024Z,9.20
2019-01-13T01:36:48.178Z,9.47
2019-01-13T01:39:36.382Z,10.07
2019-01-13T01:42:05.332Z,9.87
2019-01-13T01:45:35.409Z,9.63
2019-01-13T01:51:10.831Z,10.37
2019-01-13T01:53:55.023Z,10.70
2019-01-13T01:59:22.679Z,9.57
2019-01-13T02:04:53.810Z,16.50
2019-01-13T02:10:23.326Z,16.23
2019-01-13T02:15:55.823Z,15.83
2019-01-13T02:21:25.339Z,9.33
2019-01-13T02:24:05.968Z,10.83
2019-01-13T02:26:49.484Z,12.00
2019-01-13T02:32:21.673Z,16.13
2019-01-13T02:37:51.025Z,11.07
2019-01-13T02:40:37.049Z,9.40
2019-01-13T02:43:18.159Z,9.83
2019-01-13T02:45:58.837Z,13.30
2019-01-13T02:48:40.055Z,7.70
2019-01-13T02:53:51.349Z,8.20
2019-01-13T02:59:16.153Z,8.70
2019-01-13T03:01:57.852Z,8.47
2019-01-13T03:13:04.105Z,9.00
2019-01-13T03:18:41.180Z,9.53
2019-01-13T03:24:12.773Z,9.50
2019-01-13T03:26:54.822Z,9.90
2019-01-13T03:29:39.290Z,10.40
2019-01-13T03:35:10.965Z,10.07
2019-01-13T03:40:39.853Z,11.73
2019-01-13T03:52:03.840Z,11.40
2019-01-13T03:57:29.187Z,10.90
2019-01-13T04:00:16.325Z,10.33
2019-01-13T04:02:48.182Z,13.43
2019-01-13T04:05:17.308Z,10.87
2019-01-13T04:08:05.455Z,11.67
2019-01-13T04:10:34.466Z,12.03
2019-01-13T04:16:11.680Z,9.37
2019-01-13T04:21:35.087Z,12.07
2019-01-13T04:24:18.423Z,10.40
2019-01-13T04:27:02.739Z,11.33
2019-01-13T04:32:29.151Z,10.80
2019-01-13T04:38:01.655Z,10.90
2019-01-13T04:40:30.721Z,10.17
2019-01-13T04:43:18.837Z,11.30
2019-01-13T04:46:26.300Z,10.53
2019-01-13T04:49:07.121Z,9.87
2019-01-13T04:51:49.101Z,9.67
2019-01-13T04:57:26.403Z,10.20
2019-01-13T05:02:39.298Z,9.47
2019-01-13T05:05:27.507Z,9.60
2019-01-13T05:08:11.819Z,10.47
2019-01-13T05:13:41.453Z,10.80
2019-01-13T05:16:10.558Z,10.20
2019-01-13T05:18:58.793Z,11.00
2019-01-13T05:21:46.933Z,9.90
2019-01-13T05:24:30.809Z,12.40
2019-01-13T05:30:05.552Z,8.97
2019-01-13T05:35:36.613Z,8.20
2019-01-13T05:38:17.156Z,9.77
2019-01-13T05:41:03.623Z,8.40
2019-01-13T05:43:45.477Z,8.80
2019-01-13T05:49:32.906Z,6.40
2019-01-13T05:54:56.694Z,7.60
2019-01-13T05:57:37.381Z,9.53
2019-01-13T06:00:08.491Z,12.50
2019-01-13T06:02:56.676Z,7.90
2019-01-13T06:05:37.552Z,4.50
2019-01-13T06:08:06.560Z,5.70
2019-01-13T06:10:54.747Z,7.70
2019-01-13T06:13:42.916Z,5.87
2019-01-13T06:16:26.947Z,5.23
2019-01-13T06:24:48.531Z,4.10
2019-01-13T06:27:29.943Z,4.17
2019-01-13T06:29:58.966Z,2.93
2019-01-13T06:42:25.851Z,5.00
2019-01-13T06:45:08.298Z,4.60
2019-01-13T06:47:49.794Z,4.57
2019-01-13T06:50:30.418Z,3.43
2019-01-13T06:53:00.511Z,3.53
2019-01-13T06:55:48.954Z,4.30
2019-01-13T06:58:37.181Z,4.90
2019-01-13T07:01:18.060Z,6.63
2019-01-13T07:03:59.141Z,3.90
2019-01-13T07:06:40.519Z,4.30
2019-01-13T07:09:24.218Z,3.93
2019-01-13T07:14:51.874Z,5.57
2019-01-13T07:20:24.357Z,5.43
2019-01-13T07:29:24.793Z,4.23
2019-01-13T07:34:55.966Z,3.33
2019-01-13T07:37:52.270Z,3.93
2019-01-13T07:43:43.773Z,2.97
2019-01-13T07:49:13.390Z,2.60
2019-01-13T07:57:48.102Z,3.70
2019-01-13T08:00:31.676Z,2.87
2019-01-13T08:08:52.598Z,2.70
2019-01-13T08:14:27.371Z,2.27
2019-01-13T08:17:10.657Z,2.23
2019-01-13T08:19:52.068Z,2.80
2019-01-13T08:25:20.664Z,4.77
2019-01-13T08:40:18.175Z,3.40
2019-01-13T08:42:47.303Z,3.63
2019-01-13T08:45:35.611Z,5.90
2019-01-13T08:48:04.967Z,4.37
2019-01-13T08:56:41.617Z,3.70
2019-01-13T08:59:10.737Z,2.90
2019-01-13T09:01:39.939Z,1.70
2019-01-13T09:04:09.017Z,2.67
2019-01-13T09:07:13.441Z,2.70
2019-01-13T09:09:40.289Z,2.13
2019-01-13T09:12:21.469Z,3.10
2019-01-13T09:14:50.639Z,2.30
2019-01-13T09:17:38.868Z,2.37
2019-01-13T09:20:20.976Z,2.80
2019-01-13T09:23:06.112Z,3.60
2019-01-13T09:25:47.203Z,2.30
2019-01-13T09:28:27.755Z,1.83
2019-01-13T09:34:07.250Z,1.90
2019-01-13T09:36:51.907Z,2.40
2019-01-13T09:39:41.517Z,1.87
2019-01-13T09:42:52.533Z,2.03
2019-01-13T09:45:33.707Z,3.20
2019-01-13T09:51:00.786Z,2.43
2019-01-13T09:56:40.104Z,1.83
2019-01-13T09:59:29.494Z,2.23
2019-01-13T10:02:13.481Z,3.27
2019-01-13T10:04:42.563Z,1.83
2019-01-13T10:07:33.039Z,2.50
2019-01-13T10:10:21.368Z,2.77
2019-01-13T10:13:05.447Z,2.70
2019-01-13T10:15:34.672Z,2.03
2019-01-13T10:18:23.019Z,5.53
2019-01-13T10:21:11.340Z,2.90
2019-01-13T10:23:52.599Z,4.13
2019-01-13T10:26:33.258Z,2.30
2019-01-13T10:29:15.775Z,2.90
2019-01-13T10:37:44.446Z,5.67
2019-01-13T10:40:25.877Z,5.30
2019-01-13T10:43:06.450Z,6.30
2019-01-13T10:48:32.131Z,7.57
2019-01-13T10:51:12.838Z,2.30
2019-01-13T10:53:42.050Z,4.40
2019-01-13T11:02:38.232Z,4.20
2019-01-13T11:08:11.689Z,8.80
2019-01-13T11:10:50.673Z,6.43
2019-01-13T11:13:38.793Z,5.60
2019-01-13T11:16:27.799Z,4.73
2019-01-13T11:21:54.905Z,4.10
2019-01-13T11:24:35.912Z,2.80
2019-01-13T11:27:17.534Z,2.70
2019-01-13T11:29:58.702Z,2.67
2019-01-13T11:32:40.003Z,4.60
2019-01-13T11:35:21.000Z,4.53
2019-01-13T11:38:02.409Z,3.57
2019-01-13T11:41:08.164Z,4.63
2019-01-13T11:43:36.854Z,3.10
2019-01-13T11:46:20.160Z,5.03
2019-01-13T11:49:01.103Z,2.33
2019-01-13T11:51:42.836Z,3.13
2019-01-13T11:54:23.578Z,2.33
2019-01-13T11:56:53.292Z,2.40
2019-01-13T11:59:41.842Z,2.50
2019-01-13T12:02:32.806Z,2.73
2019-01-13T12:05:13.857Z,1.57
2019-01-13T12:07:55.609Z,2.00
2019-01-13T12:10:37.011Z,2.53
2019-01-13T12:13:18.782Z,3.00
2019-01-13T12:16:00.134Z,2.87
2019-01-13T12:18:41.009Z,2.17
2019-01-13T12:21:22.860Z,2.30
2019-01-13T12:26:52.672Z,2.23
2019-01-13T12:29:34.006Z,1.90
2019-01-13T12:32:05.343Z,2.50
2019-01-13T12:37:53.582Z,3.43
2019-01-13T12:40:36.618Z,2.90
2019-01-13T12:43:17.808Z,2.30
2019-01-13T12:45:47.320Z,2.77
2019-01-13T12:48:35.713Z,2.50
2019-01-13T12:51:24.095Z,3.53
2019-01-13T12:54:06.877Z,6.20
2019-01-13T12:56:47.481Z,3.53
2019-01-13T12:59:16.593Z,3.77
2019-01-13T13:02:04.925Z,8.97
2019-01-13T13:04:49.117Z,7.20
2019-01-13T13:07:30.610Z,6.03
2019-01-13T13:10:14.094Z,3.87
2019-01-13T13:12:56.637Z,5.27
2019-01-13T13:15:39.302Z,6.67
2019-01-13T13:18:21.417Z,3.40
2019-01-13T13:21:06.822Z,4.70
2019-01-13T13:26:38.553Z,5.37
2019-01-13T13:32:07.422Z,9.50
2019-01-13T13:34:36.580Z,5.10
2019-01-13T13:37:24.822Z,3.40
2019-01-13T13:40:13.708Z,3.70
2019-01-13T13:42:57.640Z,4.20
2019-01-13T13:48:30.548Z,3.20
2019-01-13T13:51:11.341Z,4.43
2019-01-13T13:53:53.388Z,3.03
2019-01-13T13:59:23.675Z,2.50
2019-01-13T14:04:55.600Z,2.80
2019-01-13T14:07:38.619Z,3.03
2019-01-13T14:10:20.015Z,2.47
2019-01-13T14:13:01.198Z,2.77
2019-01-13T14:15:42.799Z,2.60
2019-01-13T14:18:23.281Z,3.30
2019-01-13T14:21:06.812Z,2.67
2019-01-13T14:26:34.461Z,3.77
2019-01-13T14:29:16.021Z,2.60
2019-01-13T14:44:06.568Z,1.70
2019-01-13T14:49:32.133Z,2.40
2019-01-13T14:52:12.821Z,2.70
2019-01-13T14:54:57.439Z,2.87
2019-01-13T15:00:26.686Z,2.03
2019-01-13T15:05:45.117Z,2.23
2019-01-13T15:08:33.514Z,2.03
2019-01-13T15:11:17.615Z,1.80
2019-01-13T15:13:46.663Z,1.80
2019-01-13T15:16:34.952Z,2.20
2019-01-13T15:19:23.343Z,3.27
2019-01-13T15:22:04.524Z,3.70
2019-01-13T15:24:33.691Z,2.10
2019-01-13T15:27:05.476Z,2.27
2019-01-13T15:29:34.661Z,2.53
2019-01-13T15:32:22.955Z,2.63
2019-01-13T15:35:04.216Z,2.30
2019-01-13T15:40:45.993Z,2.40
2019-01-13T15:43:27.349Z,1.73
2019-01-13T15:45:56.587Z,3.50
2019-01-13T15:48:44.993Z,2.50
2019-01-13T15:51:25.491Z,3.13
2019-01-13T15:54:06.124Z,6.90
2019-01-13T15:56:47.471Z,3.10
2019-01-13T16:02:20.819Z,2.17
2019-01-13T16:07:44.284Z,2.80
2019-01-13T16:10:32.942Z,2.17
2019-01-13T16:13:15.826Z,3.20
2019-01-13T16:15:56.777Z,2.53
2019-01-13T16:18:40.671Z,2.90
2019-01-13T16:21:27.599Z,3.30
2019-01-13T16:24:09.155Z,2.90
2019-01-13T16:29:34.879Z,3.27
2019-01-13T16:32:16.531Z,2.37
2019-01-13T16:35:00.339Z,3.40
2019-01-13T16:37:41.161Z,4.70
2019-01-13T16:40:23.254Z,3.40
2019-01-13T16:45:50.319Z,5.60
2019-01-13T16:48:31.185Z,3.50
2019-01-13T16:51:28.240Z,5.60
2019-01-13T16:54:13.881Z,7.20
2019-01-13T16:56:57.487Z,5.10
2019-01-13T16:59:38.444Z,8.10
2019-01-13T17:02:19.863Z,9.93
2019-01-13T17:05:15.728Z,7.80
2019-01-13T17:07:59.984Z,11.50
2019-01-13T17:10:41.314Z,14.90
2019-01-13T17:13:26.651Z,6.90
2019-01-13T17:16:07.764Z,4.80
2019-01-13T17:18:51.863Z,4.17
2019-01-13T17:24:22.037Z,3.33
2019-01-13T17:29:57.677Z,2.90
2019-01-13T17:32:39.172Z,2.40
2019-01-13T17:35:47.132Z,2.40
2019-01-13T17:38:28.296Z,4.83
2019-01-13T17:41:13.297Z,3.13
2019-01-13T17:43:57.508Z,2.90
2019-01-13T17:46:44.604Z,3.53
2019-01-13T17:52:16.066Z,3.77
2019-01-13T18:01:12.198Z,4.30
2019-01-13T18:06:56.172Z,2.13
2019-01-13T18:09:38.695Z,3.30
2019-01-13T18:12:54.181Z,1.80
2019-01-13T18:15:25.703Z,2.57
2019-01-13T18:18:06.797Z,2.07
2019-01-13T18:20:50.793Z,2.90
2019-01-13T18:32:56.055Z,3.10
2019-01-13T18:35:36.729Z,2.43
2019-01-13T18:43:34.941Z,3.43
2019-01-13T18:49:19.109Z,9.27
2019-01-13T18:51:48.347Z,4.73
2019-01-13T18:54:36.763Z,4.07
2019-01-13T19:00:01.960Z,4.60
2019-01-13T19:02:50.062Z,5.43
2019-01-13T19:05:36.464Z,9.40
2019-01-13T19:08:22.654Z,9.30
2019-01-13T19:14:19.340Z,11.57
2019-01-13T19:20:32.574Z,7.80
2019-01-13T19:26:05.286Z,4.03
2019-01-13T19:28:54.563Z,5.60
2019-01-13T19:31:23.772Z,4.77
2019-01-13T19:39:59.600Z,4.77
2019-01-13T19:42:28.745Z,5.27
2019-01-13T19:45:17.736Z,4.10
2019-01-13T19:50:50.605Z,5.63
2019-01-13T19:53:38.970Z,6.40
2019-01-13T19:56:27.240Z,5.73
2019-01-13T19:59:08.123Z,4.70
2019-01-13T20:04:38.099Z,4.80
2019-01-13T20:07:08.065Z,3.63
2019-01-13T20:09:56.491Z,4.40
2019-01-13T20:16:36.203Z,3.60
2019-01-13T20:19:07.134Z,3.97
2019-01-13T20:21:47.803Z,3.20
2019-01-13T20:27:31.754Z,2.30
2019-01-13T20:30:12.481Z,2.40
2019-01-13T20:32:53.219Z,2.60
2019-01-13T20:38:21.450Z,3.30
2019-01-13T20:43:49.815Z,1.80
2019-01-13T20:49:22.153Z,1.63
2019-01-13T20:51:51.374Z,1.77
2019-01-13T20:54:39.745Z,1.80
2019-01-13T20:57:28.026Z,1.70
2019-01-13T21:00:12.489Z,1.30
2019-01-13T21:02:58.799Z,1.40
2019-01-13T21:05:28.302Z,1.23
2019-01-13T21:07:57.437Z,1.30
2019-01-13T21:10:45.758Z,1.20
2019-01-13T21:13:34.117Z,1.37
2019-01-13T21:16:15.308Z,1.40
2019-01-13T21:20:02.487Z,1.30
2019-01-13T21:21:45.412Z,1.80
2019-01-13T21:27:11.732Z,1.53
2019-01-13T21:32:37.056Z,3.10
2019-01-13T21:35:33.541Z,10.37
2019-01-13T21:38:22.418Z,13.23
2019-01-13T21:40:51.766Z,9.40
2019-01-13T21:43:40.006Z,2.20
2019-01-13T21:46:28.479Z,1.40
2019-01-13T21:49:09.825Z,5.90
2019-01-13T21:54:35.833Z,3.47
2019-01-13T22:00:07.397Z,3.30
2019-01-13T22:05:41.164Z,2.30
2019-01-13T22:10:58.709Z,2.17
2019-01-13T22:13:46.901Z,2.20
2019-01-13T22:16:30.855Z,1.40
2019-01-13T22:24:47.658Z,1.67
2019-01-13T22:27:29.132Z,1.80
2019-01-13T22:30:15.629Z,3.07
2019-01-13T22:32:44.735Z,1.50
2019-01-13T22:39:18.406Z,3.07
2019-01-13T22:42:06.699Z,2.20
2019-01-13T22:44:58.261Z,1.57
2019-01-13T22:47:40.848Z,1.40
2019-01-13T22:53:43.704Z,1.70
2019-01-13T23:11:19.971Z,2.60
2019-01-13T23:16:51.703Z,1.50
2019-01-13T23:19:51.709Z,1.87
2019-01-13T23:22:24.057Z,3.30
2019-01-13T23:25:04.606Z,1.97
2019-01-13T23:27:48.766Z,1.93
2019-01-13T23:33:15.155Z,1.47
2019-01-13T23:36:02.712Z,2.20
2019-01-13T23:41:28.502Z,2.93
2019-01-13T23:47:01.252Z,1.80
2019-01-13T23:52:19.044Z,1.90
2019-01-13T23:55:07.283Z,1.90
2019-01-13T23:58:10.633Z,2.30
